createdAt,value
2022-07-26T00:01:31.636Z,11.80
2022-07-26T00:03:59.207Z,14.93
2022-07-26T00:06:26.143Z,15.23
2022-07-26T00:08:52.945Z,12.38
2022-07-26T00:11:20.147Z,14.38
2022-07-26T00:13:47.484Z,15.00
2022-07-26T00:16:14.783Z,15.98
2022-07-26T00:18:41.671Z,15.73
2022-07-26T00:21:08.153Z,12.98
2022-07-26T00:23:36.858Z,13.57
2022-07-26T00:26:03.394Z,14.05
2022-07-26T00:28:29.949Z,15.00
2022-07-26T00:30:56.476Z,15.32
2022-07-26T00:33:22.994Z,12.40
2022-07-26T00:35:49.485Z,14.23
2022-07-26T00:38:16.118Z,12.73
2022-07-26T00:40:42.659Z,11.35
2022-07-26T00:43:09.131Z,14.55
2022-07-26T00:45:35.648Z,12.80
2022-07-26T00:48:02.246Z,14.48
2022-07-26T00:50:28.742Z,14.00
2022-07-26T00:52:55.435Z,15.90
2022-07-26T00:55:22.005Z,15.65
2022-07-26T00:57:48.836Z,13.60
2022-07-26T01:00:24.015Z,15.05
2022-07-26T01:02:50.950Z,13.40
2022-07-26T01:05:17.523Z,15.13
2022-07-26T01:07:44.010Z,15.05
2022-07-26T01:10:12.810Z,14.13
2022-07-26T01:12:40.853Z,12.43
2022-07-26T01:15:08.721Z,17.75
2022-07-26T01:17:38.073Z,15.32
2022-07-26T01:20:07.209Z,12.23
2022-07-26T01:22:33.729Z,14.98
2022-07-26T01:25:00.504Z,12.52
2022-07-26T01:27:32.040Z,14.18
2022-07-26T01:30:00.543Z,13.65
2022-07-26T01:32:27.031Z,14.70
2022-07-26T01:34:53.602Z,13.32
2022-07-26T01:37:20.061Z,16.48
2022-07-26T01:39:46.719Z,15.65
2022-07-26T01:42:13.206Z,15.55
2022-07-26T01:44:40.536Z,16.67
2022-07-26T01:47:07.595Z,14.40
2022-07-26T01:49:34.235Z,13.63
2022-07-26T01:52:00.862Z,16.90
2022-07-26T01:54:27.362Z,15.18
2022-07-26T01:56:53.831Z,14.07
2022-07-26T01:59:20.391Z,14.32
2022-07-26T02:01:46.963Z,16.77
2022-07-26T02:04:33.605Z,14.98
2022-07-26T02:07:00.127Z,15.80
2022-07-26T02:09:26.658Z,15.30
2022-07-26T02:11:55.909Z,14.02
2022-07-26T02:14:25.502Z,15.98
2022-07-26T02:16:59.606Z,15.20
2022-07-26T02:19:27.694Z,14.98
2022-07-26T02:21:56.536Z,16.95
2022-07-26T02:24:23.887Z,13.75
2022-07-26T02:26:50.462Z,17.50
2022-07-26T02:29:16.929Z,14.52
2022-07-26T02:31:48.211Z,11.85
2022-07-26T02:34:14.842Z,16.40
2022-07-26T02:36:41.467Z,14.98
2022-07-26T02:39:08.019Z,16.67
2022-07-26T02:41:34.482Z,16.27
2022-07-26T02:44:00.938Z,14.18
2022-07-26T02:46:27.575Z,15.43
2022-07-26T02:48:54.298Z,21.90
2022-07-26T02:51:20.821Z,15.15
2022-07-26T02:53:47.300Z,17.55
2022-07-26T02:56:14.006Z,14.60
2022-07-26T02:58:40.489Z,13.13
2022-07-26T03:01:06.995Z,15.98
2022-07-26T03:03:33.552Z,19.73
2022-07-26T03:06:03.371Z,20.23
2022-07-26T03:08:29.939Z,17.42
2022-07-26T03:10:56.389Z,14.48
2022-07-26T03:13:22.934Z,16.23
2022-07-26T03:15:49.459Z,18.52
2022-07-26T03:18:16.050Z,18.25
2022-07-26T03:20:42.617Z,18.65
2022-07-26T03:23:09.256Z,20.55
2022-07-26T03:25:37.571Z,16.45
2022-07-26T03:28:04.414Z,16.23
2022-07-26T03:30:30.946Z,16.83
2022-07-26T03:32:57.455Z,15.90
2022-07-26T03:35:23.972Z,17.50
2022-07-26T03:37:50.452Z,15.50
2022-07-26T03:40:18.446Z,16.98
2022-07-26T03:42:46.078Z,17.55
2022-07-26T03:45:14.376Z,15.50
2022-07-26T03:47:41.159Z,12.25
2022-07-26T03:50:08.647Z,17.38
2022-07-26T03:52:35.453Z,15.05
2022-07-26T03:55:21.877Z,13.43
2022-07-26T03:57:48.327Z,13.30
2022-07-26T04:00:15.205Z,15.60
2022-07-26T04:02:41.716Z,14.40
2022-07-26T04:05:08.918Z,11.23
2022-07-26T04:07:52.663Z,12.70
2022-07-26T04:10:21.266Z,13.38
2022-07-26T04:12:47.891Z,10.45
2022-07-26T04:15:16.853Z,13.60
2022-07-26T04:17:43.620Z,11.60
2022-07-26T04:20:11.263Z,11.10
2022-07-26T04:22:38.655Z,9.20
2022-07-26T04:25:07.486Z,12.18
2022-07-26T04:27:34.365Z,13.88
2022-07-26T04:30:01.323Z,13.15
2022-07-26T04:32:28.007Z,10.45
2022-07-26T04:34:54.550Z,9.43
2022-07-26T04:37:21.028Z,11.25
2022-07-26T04:39:51.640Z,10.73
2022-07-26T04:42:21.028Z,15.10
2022-07-26T04:44:47.707Z,10.05
2022-07-26T04:47:14.228Z,9.45
2022-07-26T04:49:40.681Z,10.82
2022-07-26T04:52:07.382Z,12.38
2022-07-26T04:54:33.989Z,9.63
2022-07-26T04:57:16.002Z,15.95
2022-07-26T04:59:42.495Z,11.32
2022-07-26T05:02:09.377Z,10.20
2022-07-26T05:04:35.982Z,11.50
2022-07-26T05:07:03.249Z,10.35
2022-07-26T05:09:29.888Z,11.73
2022-07-26T05:11:57.438Z,17.58
2022-07-26T05:14:23.922Z,10.73
2022-07-26T05:16:50.431Z,11.18
2022-07-26T05:19:17.055Z,16.02
2022-07-26T05:21:43.514Z,9.30
2022-07-26T05:24:10.335Z,10.23
2022-07-26T05:26:37.134Z,12.82
2022-07-26T05:29:03.603Z,9.13
2022-07-26T05:31:30.111Z,9.95
2022-07-26T05:33:56.653Z,12.13
2022-07-26T05:36:23.252Z,10.73
2022-07-26T05:38:49.724Z,11.70
2022-07-26T05:41:16.385Z,9.52
2022-07-26T05:43:42.857Z,12.23
2022-07-26T05:46:11.345Z,9.05
2022-07-26T05:48:39.544Z,10.68
2022-07-26T05:51:06.106Z,8.27
2022-07-26T05:53:32.566Z,8.27
2022-07-26T05:55:59.090Z,12.50
2022-07-26T05:58:25.598Z,9.02
2022-07-26T06:00:52.499Z,9.15
2022-07-26T06:03:25.847Z,9.68
2022-07-26T06:05:55.235Z,10.73
2022-07-26T06:08:22.144Z,7.35
2022-07-26T06:10:49.298Z,11.57
2022-07-26T06:13:16.461Z,7.47
2022-07-26T06:15:43.825Z,7.63
2022-07-26T06:18:10.808Z,8.43
2022-07-26T06:20:42.220Z,7.45
2022-07-26T06:23:08.756Z,13.60
2022-07-26T06:25:35.309Z,9.68
2022-07-26T06:28:04.053Z,11.68
2022-07-26T06:30:30.656Z,7.38
2022-07-26T06:32:57.132Z,7.63
2022-07-26T06:35:24.282Z,7.13
2022-07-26T06:37:51.048Z,7.47
2022-07-26T06:40:17.514Z,9.07
2022-07-26T06:42:44.029Z,8.25
2022-07-26T06:45:11.341Z,7.78
2022-07-26T06:47:37.958Z,9.88
2022-07-26T06:50:04.929Z,9.02
2022-07-26T06:52:32.795Z,7.15
2022-07-26T06:54:59.939Z,9.13
2022-07-26T06:57:26.918Z,9.65
2022-07-26T06:59:53.609Z,11.88
2022-07-26T07:02:20.277Z,8.55
2022-07-26T07:04:46.772Z,8.68
2022-07-26T07:07:13.277Z,11.30
2022-07-26T07:09:41.133Z,8.25
2022-07-26T07:12:10.372Z,11.63
2022-07-26T07:14:37.630Z,5.50
2022-07-26T07:17:10.756Z,7.53
2022-07-26T07:19:40.800Z,7.53
2022-07-26T07:22:11.540Z,7.75
2022-07-26T07:24:38.657Z,9.30
2022-07-26T07:27:05.778Z,7.53
2022-07-26T07:29:33.166Z,8.52
2022-07-26T07:31:59.729Z,11.52
2022-07-26T07:34:29.930Z,7.32
2022-07-26T07:36:56.400Z,9.93
2022-07-26T07:39:24.029Z,11.13
2022-07-26T07:41:53.864Z,7.35
2022-07-26T07:44:20.530Z,6.88
2022-07-26T07:46:47.029Z,6.70
2022-07-26T07:49:13.929Z,10.10
2022-07-26T07:51:40.517Z,8.60
2022-07-26T07:54:09.008Z,6.40
2022-07-26T07:56:35.804Z,6.22
2022-07-26T07:59:02.363Z,8.23
2022-07-26T08:01:40.138Z,8.32
2022-07-26T08:04:07.308Z,5.70
2022-07-26T08:06:33.872Z,7.22
2022-07-26T08:09:00.492Z,7.30
2022-07-26T08:11:30.046Z,6.65
2022-07-26T08:13:56.837Z,6.97
2022-07-26T08:16:23.697Z,5.00
2022-07-26T08:18:57.021Z,6.57
2022-07-26T08:21:26.837Z,6.63
2022-07-26T08:23:57.768Z,6.20
2022-07-26T08:26:24.509Z,9.45
2022-07-26T08:28:58.331Z,6.35
2022-07-26T08:31:37.756Z,4.53
2022-07-26T08:34:04.294Z,9.68
2022-07-26T08:36:32.761Z,4.53
2022-07-26T08:39:00.453Z,6.72
2022-07-26T08:41:27.073Z,7.60
2022-07-26T08:43:54.010Z,6.90
2022-07-26T08:46:26.821Z,5.78
2022-07-26T08:48:55.515Z,8.27
2022-07-26T08:51:24.286Z,5.90
2022-07-26T08:53:54.418Z,5.00
2022-07-26T08:56:20.945Z,6.28
2022-07-26T08:58:47.579Z,5.47
2022-07-26T09:01:14.429Z,8.43
2022-07-26T09:03:44.926Z,6.88
2022-07-26T09:06:18.575Z,8.40
2022-07-26T09:08:47.339Z,8.38
2022-07-26T09:11:31.536Z,4.55
2022-07-26T09:14:05.862Z,4.95
2022-07-26T09:16:37.260Z,13.05
2022-07-26T09:19:17.999Z,6.85
2022-07-26T09:21:46.556Z,5.65
2022-07-26T09:24:13.137Z,4.57
2022-07-26T09:26:39.763Z,9.55
2022-07-26T09:29:12.728Z,6.25
2022-07-26T09:31:40.061Z,6.75
2022-07-26T09:34:07.426Z,7.80
2022-07-26T09:36:50.458Z,5.00
2022-07-26T09:39:16.941Z,6.55
2022-07-26T09:41:43.535Z,6.63
2022-07-26T09:44:21.945Z,8.40
2022-07-26T09:46:57.150Z,6.97
2022-07-26T09:49:32.527Z,7.18
2022-07-26T09:52:21.513Z,5.68
2022-07-26T09:54:49.602Z,6.78
2022-07-26T09:57:20.700Z,6.38
2022-07-26T09:59:48.491Z,8.75
2022-07-26T10:02:15.015Z,6.10
2022-07-26T10:04:42.493Z,7.13
2022-07-26T10:07:10.792Z,6.60
2022-07-26T10:09:48.632Z,6.22
2022-07-26T10:12:17.513Z,6.82
2022-07-26T10:14:46.136Z,6.53
2022-07-26T10:17:35.711Z,5.68
2022-07-26T10:20:10.730Z,5.97
2022-07-26T10:22:46.250Z,7.88
2022-07-26T10:25:19.048Z,7.45
2022-07-26T10:27:48.385Z,5.18
2022-07-26T10:30:27.670Z,9.68
2022-07-26T10:33:00.747Z,4.22
2022-07-26T10:35:36.480Z,10.05
2022-07-26T10:38:11.734Z,5.78
2022-07-26T10:40:55.467Z,5.30
2022-07-26T10:46:18.455Z,6.07
2022-07-26T10:49:06.693Z,6.30
2022-07-26T10:51:40.973Z,5.15
2022-07-26T10:54:12.074Z,5.38
2022-07-26T10:56:41.722Z,5.80
2022-07-26T10:59:08.576Z,7.38
2022-07-26T11:01:39.299Z,5.07
2022-07-26T11:04:17.600Z,4.85
2022-07-26T11:06:46.238Z,4.95
2022-07-26T11:09:13.231Z,10.57
2022-07-26T11:11:46.798Z,6.82
2022-07-26T11:14:15.627Z,7.50
2022-07-26T11:16:45.756Z,5.85
2022-07-26T11:19:18.171Z,8.55
2022-07-26T11:21:46.305Z,12.15
2022-07-26T11:24:13.297Z,5.78
2022-07-26T11:26:45.902Z,6.45
2022-07-26T11:29:16.738Z,6.10
2022-07-26T11:31:51.471Z,7.55
2022-07-26T11:34:30.841Z,7.72
2022-07-26T11:36:58.849Z,6.43
2022-07-26T11:39:28.303Z,4.60
2022-07-26T11:42:00.901Z,10.10
2022-07-26T11:44:28.564Z,5.40
2022-07-26T11:46:58.533Z,4.90
2022-07-26T11:49:51.235Z,4.28
2022-07-26T11:52:14.383Z,5.28
2022-07-26T11:54:53.331Z,6.15
2022-07-26T11:57:20.404Z,5.85
2022-07-26T11:59:48.331Z,7.40
2022-07-26T12:02:16.358Z,6.72
2022-07-26T12:04:44.119Z,5.15
2022-07-26T12:07:13.269Z,4.47
2022-07-26T12:09:42.054Z,5.22
2022-07-26T12:12:21.210Z,10.43
2022-07-26T12:15:05.038Z,5.07
2022-07-26T12:17:34.654Z,5.82
2022-07-26T12:20:17.901Z,5.20
2022-07-26T12:22:55.977Z,3.78
2022-07-26T12:25:29.792Z,7.15
2022-07-26T12:27:56.708Z,4.28
2022-07-26T12:30:23.732Z,4.25
2022-07-26T12:32:52.056Z,5.25
2022-07-26T12:35:29.305Z,5.30
2022-07-26T12:37:55.971Z,7.60
2022-07-26T12:40:27.177Z,7.05
2022-07-26T12:43:01.109Z,6.07
2022-07-26T12:45:35.098Z,6.78
2022-07-26T12:48:10.983Z,5.55
2022-07-26T12:50:37.565Z,4.25
2022-07-26T12:53:07.172Z,6.32
2022-07-26T12:55:35.104Z,5.97
2022-07-26T12:58:01.696Z,6.15
2022-07-26T13:00:29.622Z,12.02
2022-07-26T13:02:57.351Z,5.30
2022-07-26T13:05:23.885Z,4.28
2022-07-26T13:07:51.657Z,4.35
2022-07-26T13:10:35.033Z,4.18
2022-07-26T13:13:02.469Z,6.63
2022-07-26T13:15:35.934Z,4.15
2022-07-26T13:18:05.945Z,5.70
2022-07-26T13:20:32.617Z,4.43
2022-07-26T13:22:59.137Z,4.00
2022-07-26T13:25:26.106Z,4.25
2022-07-26T13:27:58.414Z,3.72
2022-07-26T13:30:24.886Z,3.88
2022-07-26T13:32:51.746Z,4.53
2022-07-26T13:35:18.267Z,3.40
2022-07-26T13:37:44.754Z,4.90
2022-07-26T13:40:11.589Z,3.75
2022-07-26T13:42:38.239Z,3.17
2022-07-26T13:45:06.787Z,3.17
2022-07-26T13:47:33.356Z,4.07
2022-07-26T13:49:59.988Z,3.88
2022-07-26T13:52:26.666Z,3.40
2022-07-26T13:54:53.254Z,3.50
2022-07-26T13:57:19.901Z,3.75
2022-07-26T13:59:46.414Z,4.03
2022-07-26T14:02:13.131Z,4.75
2022-07-26T14:04:39.772Z,2.72
2022-07-26T14:07:06.239Z,3.88
2022-07-26T14:09:32.781Z,4.30
2022-07-26T14:11:59.281Z,3.58
2022-07-26T14:14:25.790Z,3.83
2022-07-26T14:16:52.412Z,5.70
2022-07-26T14:19:19.050Z,4.55
2022-07-26T14:21:48.885Z,6.28
2022-07-26T14:24:26.324Z,3.17
2022-07-26T14:26:56.875Z,4.45
2022-07-26T14:29:25.626Z,4.53
2022-07-26T14:31:52.152Z,4.38
2022-07-26T14:34:18.739Z,4.15
2022-07-26T14:36:45.235Z,5.60
2022-07-26T14:39:11.807Z,5.38
2022-07-26T14:41:38.506Z,4.07
2022-07-26T14:44:05.271Z,4.38
2022-07-26T14:46:31.878Z,3.28
2022-07-26T14:48:58.575Z,4.95
2022-07-26T14:51:25.200Z,3.33
2022-07-26T14:53:51.941Z,2.95
2022-07-26T14:56:18.612Z,4.55
2022-07-26T14:58:45.074Z,2.63
2022-07-26T15:01:11.626Z,4.82
2022-07-26T15:03:38.149Z,4.00
2022-07-26T15:06:04.825Z,2.20
2022-07-26T15:08:31.299Z,5.78
2022-07-26T15:10:57.787Z,3.20
2022-07-26T15:13:24.282Z,3.58
2022-07-26T15:15:50.990Z,3.38
2022-07-26T15:18:17.720Z,5.03
2022-07-26T15:20:44.345Z,4.07
2022-07-26T15:23:14.342Z,3.25
2022-07-26T15:25:41.184Z,4.18
2022-07-26T15:28:08.035Z,3.75
2022-07-26T15:30:35.490Z,3.53
2022-07-26T15:33:02.199Z,3.25
2022-07-26T15:35:29.994Z,5.07
2022-07-26T15:37:56.917Z,3.35
2022-07-26T15:40:23.477Z,3.08
2022-07-26T15:42:52.093Z,3.72
2022-07-26T15:45:20.300Z,2.95
2022-07-26T15:48:04.403Z,2.80
2022-07-26T15:50:35.430Z,2.03
2022-07-26T15:53:01.927Z,3.50
2022-07-26T15:55:28.558Z,2.65
2022-07-26T15:57:58.270Z,3.60
2022-07-26T16:00:24.897Z,2.05
2022-07-26T16:02:51.481Z,3.40
2022-07-26T16:05:18.119Z,3.15
2022-07-26T16:07:45.383Z,4.60
2022-07-26T16:10:13.477Z,2.08
2022-07-26T16:12:41.047Z,2.25
2022-07-26T16:15:09.190Z,2.38
2022-07-26T16:17:35.864Z,2.53
2022-07-26T16:20:02.384Z,2.42
2022-07-26T16:22:28.963Z,3.25
2022-07-26T16:24:55.431Z,2.83
2022-07-26T16:27:21.957Z,2.17
2022-07-26T16:29:52.165Z,3.10
2022-07-26T16:32:21.168Z,3.30
2022-07-26T16:34:48.168Z,1.65
2022-07-26T16:37:15.406Z,2.38
2022-07-26T16:39:41.887Z,2.50
2022-07-26T16:42:08.355Z,2.03
2022-07-26T16:44:36.181Z,3.13
2022-07-26T16:47:03.243Z,3.72
2022-07-26T16:49:29.945Z,2.83
2022-07-26T16:51:57.617Z,2.60
2022-07-26T16:54:24.316Z,3.42
2022-07-26T16:56:50.823Z,2.42
2022-07-26T16:59:17.986Z,4.85
2022-07-26T17:01:44.761Z,3.10
2022-07-26T17:04:11.631Z,2.38
2022-07-26T17:06:38.243Z,3.47
2022-07-26T17:09:04.731Z,5.47
2022-07-26T17:11:31.282Z,3.22
2022-07-26T17:13:58.078Z,2.13
2022-07-26T17:16:25.034Z,1.13
2022-07-26T17:18:52.868Z,3.58
2022-07-26T17:21:19.377Z,3.50
2022-07-26T17:23:46.109Z,5.97
2022-07-26T17:26:12.807Z,1.00
2022-07-26T17:28:39.266Z,3.22
2022-07-26T17:31:05.833Z,2.97
2022-07-26T17:33:32.331Z,1.58
2022-07-26T17:36:03.213Z,3.08
2022-07-26T17:38:31.145Z,6.63
2022-07-26T17:40:57.695Z,3.30
2022-07-26T17:43:25.213Z,2.85
2022-07-26T17:46:03.835Z,3.38
2022-07-26T17:48:30.421Z,5.80
2022-07-26T17:50:56.945Z,2.03
2022-07-26T17:53:33.911Z,3.40
2022-07-26T17:56:01.476Z,4.43
2022-07-26T17:58:27.996Z,4.82
2022-07-26T18:00:54.501Z,5.75
2022-07-26T18:03:22.142Z,3.13
2022-07-26T18:05:49.330Z,3.00
2022-07-26T18:08:16.675Z,3.40
2022-07-26T18:10:47.563Z,5.88
2022-07-26T18:13:17.679Z,6.38
2022-07-26T18:15:44.903Z,2.05
2022-07-26T18:18:11.466Z,2.28
2022-07-26T18:20:38.304Z,3.20
2022-07-26T18:23:04.878Z,5.35
2022-07-26T18:25:31.353Z,2.45
2022-07-26T18:27:59.995Z,4.70
2022-07-26T18:30:31.019Z,2.13
2022-07-26T18:32:58.494Z,2.90
2022-07-26T18:35:25.071Z,2.28
2022-07-26T18:37:55.552Z,3.20
2022-07-26T18:40:23.858Z,2.75
2022-07-26T18:42:50.915Z,2.83
2022-07-26T18:45:17.694Z,2.80
2022-07-26T18:47:44.202Z,4.78
2022-07-26T18:50:15.311Z,6.53
2022-07-26T18:52:43.842Z,2.00
2022-07-26T18:55:12.519Z,4.80
2022-07-26T18:57:41.098Z,4.65
2022-07-26T19:00:11.857Z,6.40
2022-07-26T19:02:38.356Z,5.13
2022-07-26T19:05:05.695Z,5.43
2022-07-26T19:07:32.455Z,3.40
2022-07-26T19:09:59.534Z,7.03
2022-07-26T19:12:30.035Z,3.13
2022-07-26T19:14:56.528Z,3.00
2022-07-26T19:17:23.211Z,2.38
2022-07-26T19:19:49.710Z,2.70
2022-07-26T19:22:16.215Z,4.95
2022-07-26T19:24:42.964Z,3.47
2022-07-26T19:27:09.507Z,4.32
2022-07-26T19:29:37.194Z,5.93
2022-07-26T19:32:05.097Z,3.10
2022-07-26T19:34:31.595Z,3.05
2022-07-26T19:36:58.458Z,6.53
2022-07-26T19:39:25.030Z,4.07
2022-07-26T19:41:52.029Z,3.08
2022-07-26T19:44:18.490Z,5.03
2022-07-26T19:46:45.716Z,4.57
2022-07-26T19:49:12.790Z,3.00
2022-07-26T19:51:39.650Z,2.08
2022-07-26T19:54:06.614Z,2.97
2022-07-26T19:56:33.299Z,8.65
2022-07-26T19:59:02.802Z,7.13
2022-07-26T20:01:29.704Z,3.92
2022-07-26T20:03:56.701Z,5.28
2022-07-26T20:06:23.632Z,2.63
2022-07-26T20:08:50.607Z,3.60
2022-07-26T20:11:19.823Z,8.07
2022-07-26T20:13:46.929Z,3.17
2022-07-26T20:16:13.702Z,3.28
2022-07-26T20:18:40.287Z,4.55
2022-07-26T20:21:06.795Z,3.63
2022-07-26T20:23:34.129Z,5.82
2022-07-26T20:26:01.098Z,5.25
2022-07-26T20:28:27.623Z,3.75
2022-07-26T20:30:55.066Z,5.03
2022-07-26T20:33:21.930Z,5.97
2022-07-26T20:35:54.483Z,6.20
2022-07-26T20:38:21.892Z,5.00
2022-07-26T20:40:48.371Z,2.88
2022-07-26T20:43:15.243Z,6.60
2022-07-26T20:45:41.791Z,4.05
2022-07-26T20:48:08.782Z,6.55
2022-07-26T20:50:36.482Z,6.43
2022-07-26T20:53:03.826Z,4.50
2022-07-26T20:55:30.881Z,7.38
2022-07-26T20:57:57.556Z,5.28
2022-07-26T21:00:26.120Z,8.00
2022-07-26T21:02:53.699Z,9.38
2022-07-26T21:05:20.558Z,5.30
2022-07-26T21:07:53.433Z,5.75
2022-07-26T21:10:25.480Z,7.70
2022-07-26T21:12:52.966Z,9.15
2022-07-26T21:15:19.448Z,7.68
2022-07-26T21:17:45.935Z,8.20
2022-07-26T21:20:12.460Z,8.18
2022-07-26T21:22:38.958Z,6.13
2022-07-26T21:25:06.558Z,5.28
2022-07-26T21:27:33.194Z,5.68
2022-07-26T21:29:59.847Z,5.70
2022-07-26T21:32:31.309Z,7.75
2022-07-26T21:34:58.429Z,3.95
2022-07-26T21:37:24.996Z,3.45
2022-07-26T21:39:51.469Z,5.45
2022-07-26T21:42:17.917Z,8.43
2022-07-26T21:44:44.400Z,4.35
2022-07-26T21:47:12.113Z,9.23
2022-07-26T21:49:38.673Z,5.45
2022-07-26T21:52:05.479Z,6.93
2022-07-26T21:54:31.995Z,6.82
2022-07-26T21:56:58.506Z,5.40
2022-07-26T21:59:24.985Z,8.00
2022-07-26T22:01:51.561Z,6.78
2022-07-26T22:04:18.138Z,5.95
2022-07-26T22:06:44.794Z,5.30
2022-07-26T22:09:11.571Z,9.60
2022-07-26T22:11:38.430Z,7.28
2022-07-26T22:14:06.773Z,4.93
2022-07-26T22:16:33.349Z,6.95
2022-07-26T22:18:59.919Z,7.88
2022-07-26T22:21:29.082Z,4.78
2022-07-26T22:23:55.641Z,5.50
2022-07-26T22:26:26.167Z,5.90
2022-07-26T22:28:52.805Z,6.47
2022-07-26T22:31:19.306Z,7.63
2022-07-26T22:33:45.823Z,7.25
2022-07-26T22:36:12.291Z,10.00
2022-07-26T22:38:38.774Z,9.88
2022-07-26T22:41:05.301Z,5.78
2022-07-26T22:43:31.764Z,7.15
2022-07-26T22:45:58.316Z,6.05
2022-07-26T22:48:24.809Z,8.00
2022-07-26T22:50:51.339Z,5.78
2022-07-26T22:53:17.841Z,6.70
2022-07-26T22:55:44.334Z,5.63
2022-07-26T22:58:10.861Z,5.90
2022-07-26T23:00:37.397Z,6.93
2022-07-26T23:03:04.410Z,13.52
2022-07-26T23:05:46.609Z,5.10
2022-07-26T23:11:01.844Z,12.40
2022-07-26T23:13:28.372Z,8.25
2022-07-26T23:16:00.017Z,7.43
2022-07-26T23:18:27.724Z,9.88
2022-07-26T23:20:54.399Z,5.95
2022-07-26T23:23:21.092Z,7.45
2022-07-26T23:25:47.704Z,7.07
2022-07-26T23:28:35.149Z,8.20
2022-07-26T23:31:03.086Z,8.35
2022-07-26T23:33:52.516Z,4.60
2022-07-26T23:36:16.061Z,5.30
2022-07-26T23:38:42.776Z,6.47
2022-07-26T23:41:09.234Z,7.13
2022-07-26T23:43:35.706Z,8.98
2022-07-26T23:46:02.313Z,9.77
2022-07-26T23:48:30.454Z,7.55
2022-07-26T23:50:57.159Z,8.80
2022-07-26T23:53:26.733Z,5.38
2022-07-26T23:55:53.825Z,7.85
2022-07-26T23:58:20.391Z,5.93
